KAIT

Aitkin Municipal-Steve Kurtz Field Airport

Aitkin, Minnesota, USA
METAR KAIT 211536Z AUTO 16013G18KT 10SM CLR M17/M22 A3025 RMK AO2
Observed Flight Rules
Jan-21 @ 15:36 UTC (20 minutes ago) Visual Flight Rules
Wind Visibility Clouds
160° at 13 knots
 Gusting to 18 knots
10 miles
  • Clear skies
Temperatures Readings
Current -17°C / 1°F
Dewpoint -22°C / -8°F
Humidity 65%
Altimeter 30.25" Hg
Pressure 1024.42 hPa
Elevation 367
METAR KAIT 211536Z AUTO 16013G18KT 10SM CLR M17/M22 A3025 RMK AO2
Observed Flight Rules
Jan-21 @ 15:36 UTC
(20 minutes ago)
VFR
Wind Visibility
160° at 13 knots
 Gusting to 18 knots
10 miles
Clouds
  • Clear skies
Temperature Dewpoint
-17°C / 1°F -22°C / -8°F
Humidity Altimeter Pressure
65% 30.25" Hg 1024.42 hPa